Wetterdaten: Woche 09.07.12 - 15.07.12 (KW28)
Datum Zeit Temp. Innen Temp. Aussen UV X Diff Temp. Feuchte Inne Feuchte Auss Sonnenschein Luftdruck Regen ab 0,1 Wind Sonnenschein T Regendauer Windben
09.07.2012 00:00 22,6 C 17,2 C 0,0 UV-I 0,0 C 58 % 84 % 0 % 1009,3 hPa 0,0 l/m 6,7 km/h (2 Bft) 0,00 h 0,00 h 13,2 km/h (3 Bft)
09.07.2012 01:00 22,4 C 16,7 C 0,0 UV-I 0,0 C 60 % 87 % 0 % 1009,8 hPa 0,0 l/m 4,6 km/h (1 Bft) 0,00 h 0,00 h 10,0 km/h (2 Bft)
09.07.2012 02:00 22,2 C 16,6 C 0,0 UV-I 0,0 C 59 % 86 % 0 % 1009,9 hPa 0,0 l/m 7,2 km/h (2 Bft) 0,00 h 0,00 h 16,3 km/h (3 Bft)
09.07.2012 03:00 22,1 C 16,5 C 0,0 UV-I 0,0 C 59 % 85 % 0 % 1010,2 hPa 0,0 l/m 5,6 km/h (1 Bft) 0,00 h 0,00 h 12,0 km/h (2 Bft)
09.07.2012 04:00 22,0 C 16,1 C 0,0 UV-I 0,0 C 59 % 86 % 0 % 1010,5 hPa 0,0 l/m 6,9 km/h (2 Bft) 0,00 h 0,00 h 12,8 km/h (3 Bft)
09.07.2012 05:00 21,9 C 16,0 C 0,0 UV-I 0,0 C 59 % 86 % 0 % 1010,7 hPa 0,0 l/m 5,0 km/h (1 Bft) 0,00 h 0,00 h 10,2 km/h (2 Bft)
09.07.2012 06:00 21,8 C 15,7 C 0,0 UV-I 0,0 C 59 % 86 % 0 % 1010,6 hPa 0,0 l/m 2,6 km/h (1 Bft) 0,00 h 0,00 h 5,6 km/h (1 Bft)
09.07.2012 07:00 21,8 C 16,1 C 0,3 UV-I 0,0 C 59 % 87 % 0 % 1010,4 hPa 0,0 l/m 4,2 km/h (1 Bft) 0,00 h 0,00 h 8,6 km/h (2 Bft)
09.07.2012 08:00 21,7 C 17,1 C 1,0 UV-I 4,2 C 59 % 83 % 72 % 1010,5 hPa 0,0 l/m 6,9 km/h (2 Bft) 0,67 h 0,00 h 12,7 km/h (3 Bft)
09.07.2012 09:00 21,7 C 18,6 C 3,2 UV-I 6,9 C 59 % 78 % 100 % 1010,7 hPa 0,0 l/m 7,4 km/h (2 Bft) 1,00 h 0,00 h 14,8 km/h (3 Bft)
09.07.2012 10:00 21,9 C 19,3 C 4,3 UV-I 6,6 C 59 % 75 % 100 % 1011,0 hPa 0,0 l/m 7,9 km/h (2 Bft) 1,00 h 0,00 h 14,0 km/h (3 Bft)
09.07.2012 11:00 22,2 C 19,6 C 2,5 UV-I 4,8 C 58 % 73 % 100 % 1010,6 hPa 0,0 l/m 8,3 km/h (2 Bft) 1,00 h 0,00 h 13,5 km/h (3 Bft)
09.07.2012 12:00 22,6 C 20,0 C 2,4 UV-I 4,5 C 57 % 71 % 100 % 1009,4 hPa 0,0 l/m 7,6 km/h (2 Bft) 1,00 h 0,00 h 14,0 km/h (3 Bft)
09.07.2012 13:00 23,1 C 21,2 C 2,3 UV-I 5,1 C 55 % 66 % 100 % 1011,0 hPa 0,0 l/m 8,4 km/h (2 Bft) 1,00 h 0,00 h 13,5 km/h (3 Bft)
09.07.2012 14:00 23,7 C 21,4 C 2,6 UV-I 4,3 C 53 % 64 % 99 % 1012,0 hPa 0,0 l/m 7,8 km/h (2 Bft) 1,00 h 0,00 h 13,9 km/h (3 Bft)
09.07.2012 15:00 24,8 C 22,1 C 2,5 UV-I 4,5 C 52 % 63 % 100 % 1011,5 hPa 0,0 l/m 7,2 km/h (2 Bft) 1,00 h 0,00 h 13,1 km/h (3 Bft)
09.07.2012 16:00 25,7 C 22,3 C 2,0 UV-I 3,3 C 49 % 61 % 89 % 1010,8 hPa 0,0 l/m 7,2 km/h (2 Bft) 0,77 h 0,00 h 12,9 km/h (3 Bft)
09.07.2012 17:00 25,2 C 21,0 C 0,7 UV-I 1,2 C 49 % 65 % 35 % 1011,6 hPa 0,0 l/m 6,0 km/h (2 Bft) 0,00 h 0,00 h 11,2 km/h (2 Bft)
09.07.2012 18:00 24,7 C 20,3 C 0,9 UV-I 1,1 C 51 % 70 % 31 % 1011,7 hPa 0,0 l/m 6,8 km/h (2 Bft) 0,00 h 0,03 h 11,7 km/h (2 Bft)
09.07.2012 19:00 24,3 C 19,5 C 0,7 UV-I 0,8 C 53 % 75 % 22 % 1012,0 hPa 0,0 l/m 4,5 km/h (1 Bft) 0,00 h 0,03 h 8,8 km/h (2 Bft)
09.07.2012 20:00 24,0 C 18,5 C 0,0 UV-I 0,0 C 55 % 79 % 1 % 1012,4 hPa 0,0 l/m 1,5 km/h (1 Bft) 0,00 h 0,00 h 3,5 km/h (1 Bft)
09.07.2012 21:00 23,7 C 18,0 C 0,0 UV-I 0,0 C 55 % 81 % 0 % 1012,4 hPa 0,0 l/m 0,4 km/h (0 Bft) 0,00 h 0,00 h 0,6 km/h (0 Bft)
09.07.2012 22:00 23,4 C 17,2 C 0,0 UV-I 0,0 C 58 % 85 % 0 % 1013,0 hPa 0,0 l/m 0,0 km/h (0 Bft) 0,00 h 0,00 h 0,6 km/h (0 Bft)
09.07.2012 23:00 23,1 C 16,8 C 0,0 UV-I 0,0 C 59 % 88 % 0 % 1013,0 hPa 0,0 l/m 0,2 km/h (0 Bft) 0,00 h 0,00 h 0,5 km/h (0 Bft)
10.07.2012 00:00 23,0 C 15,9 C 0,0 UV-I 0,0 C 60 % 89 % 0 % 1013,2 hPa 0,0 l/m 0,0 km/h (0 Bft) 0,00 h 0,00 h 0,0 km/h (0 Bft)
10.07.2012 01:00 22,8 C 15,3 C 0,0 UV-I 0,0 C 60 % 91 % 0 % 1013,1 hPa 0,0 l/m 0,0 km/h (0 Bft) 0,00 h 0,00 h 0,0 km/h (0 Bft)
10.07.2012 02:00 22,6 C 15,3 C 0,0 UV-I 0,0 C 61 % 93 % 0 % 1012,8 hPa 0,0 l/m 0,1 km/h (0 Bft) 0,00 h 0,00 h 0,4 km/h (0 Bft)
10.07.2012 03:00 22,5 C 15,6 C 0,0 UV-I 0,0 C 61 % 93 % 0 % 1013,0 hPa 0,0 l/m 0,0 km/h (0 Bft) 0,00 h 0,00 h 0,0 km/h (0 Bft)
10.07.2012 04:00 22,4 C 15,7 C 0,0 UV-I 0,0 C 60 % 92 % 0 % 1012,6 hPa 0,0 l/m 0,1 km/h (0 Bft) 0,00 h 0,00 h 0,9 km/h (0 Bft)
10.07.2012 05:00 22,4 C 15,6 C 0,0 UV-I 0,0 C 60 % 92 % 0 % 1012,5 hPa 0,0 l/m 0,1 km/h (0 Bft) 0,00 h 0,00 h 0,3 km/h (0 Bft)
10.07.2012 06:00 22,3 C 15,8 C 0,0 UV-I 0,0 C 61 % 92 % 0 % 1012,5 hPa 0,0 l/m 0,2 km/h (0 Bft) 0,00 h 0,00 h 1,0 km/h (0 Bft)
10.07.2012 07:00 22,3 C 16,2 C 0,0 UV-I 0,3 C 61 % 91 % 7 % 1012,3 hPa 0,0 l/m 0,1 km/h (0 Bft) 0,00 h 0,00 h 0,0 km/h (0 Bft)
10.07.2012 08:00 22,5 C 17,2 C 0,3 UV-I 2,0 C 61 % 90 % 56 % 1012,6 hPa 0,0 l/m 0,6 km/h (0 Bft) 0,07 h 0,00 h 2,7 km/h (1 Bft)
10.07.2012 09:00 22,7 C 18,4 C 0,7 UV-I 2,5 C 61 % 86 % 72 % 1012,3 hPa 0,0 l/m 0,6 km/h (0 Bft) 0,27 h 0,00 h 1,1 km/h (1 Bft)
10.07.2012 10:00 23,2 C 20,0 C 2,4 UV-I 6,2 C 60 % 80 % 100 % 1012,1 hPa 0,0 l/m 1,5 km/h (1 Bft) 1,00 h 0,00 h 6,1 km/h (2 Bft)
10.07.2012 11:00 23,6 C 21,1 C 2,5 UV-I 5,9 C 59 % 74 % 100 % 1012,0 hPa 0,0 l/m 2,9 km/h (1 Bft) 1,00 h 0,00 h 6,4 km/h (2 Bft)
10.07.2012 12:00 23,9 C 21,0 C 0,9 UV-I 2,7 C 58 % 74 % 75 % 1011,8 hPa 0,0 l/m 1,9 km/h (1 Bft) 0,60 h 0,03 h 5,7 km/h (1 Bft)
10.07.2012 13:00 23,9 C 18,3 C 1,4 UV-I 1,7 C 59 % 84 % 42 % 1011,5 hPa 4,6 l/m 2,4 km/h (1 Bft) 0,30 h 0,13 h 5,6 km/h (1 Bft)
10.07.2012 14:00 23,9 C 18,2 C 0,5 UV-I 1,2 C 59 % 90 % 33 % 1011,4 hPa 1,4 l/m 0,3 km/h (0 Bft) 0,20 h 0,53 h 0,7 km/h (0 Bft)
10.07.2012 15:00 23,9 C 18,6 C 1,1 UV-I 0,7 C 61 % 91 % 20 % 1011,2 hPa 0,7 l/m 0,8 km/h (0 Bft) 0,00 h 0,20 h 2,8 km/h (1 Bft)
10.07.2012 16:00 24,5 C 19,6 C 2,2 UV-I 2,9 C 61 % 90 % 80 % 1010,6 hPa 0,0 l/m 2,6 km/h (1 Bft) 0,73 h 0,13 h 7,5 km/h (2 Bft)
10.07.2012 17:00 25,1 C 20,2 C 1,4 UV-I 2,9 C 58 % 84 % 83 % 1010,6 hPa 0,0 l/m 2,7 km/h (1 Bft) 0,47 h 0,00 h 7,1 km/h (2 Bft)
10.07.2012 18:00 25,0 C 20,1 C 1,0 UV-I 2,2 C 58 % 80 % 61 % 1010,4 hPa 0,0 l/m 2,7 km/h (1 Bft) 0,30 h 0,00 h 6,4 km/h (2 Bft)
10.07.2012 19:00 24,7 C 19,4 C 0,3 UV-I 0,7 C 57 % 78 % 20 % 1010,8 hPa 0,0 l/m 2,6 km/h (1 Bft) 0,00 h 0,03 h 6,7 km/h (2 Bft)
10.07.2012 20:00 24,2 C 17,6 C 0,0 UV-I 0,0 C 58 % 84 % 0 % 1011,3 hPa 0,0 l/m 3,3 km/h (1 Bft) 0,00 h 0,17 h 7,9 km/h (2 Bft)
10.07.2012 21:00 23,7 C 16,6 C 0,0 UV-I 0,0 C 59 % 88 % 0 % 1011,5 hPa 0,0 l/m 0,3 km/h (0 Bft) 0,00 h 0,00 h 1,0 km/h (0 Bft)
10.07.2012 22:00 23,3 C 16,2 C 0,0 UV-I 0,0 C 60 % 90 % 0 % 1012,0 hPa 0,0 l/m 0,5 km/h (0 Bft) 0,00 h 0,00 h 1,8 km/h (1 Bft)
10.07.2012 23:00 23,1 C 16,0 C 0,0 UV-I 0,0 C 61 % 92 % 0 % 1012,1 hPa 0,0 l/m 0,6 km/h (0 Bft) 0,00 h 0,00 h 2,4 km/h (1 Bft)
11.07.2012 00:00 22,9 C 15,9 C 0,0 UV-I 0,0 C 61 % 92 % 0 % 1012,3 hPa 0,0 l/m 1,4 km/h (1 Bft) 0,00 h 0,00 h 4,3 km/h (1 Bft)
11.07.2012 01:00 22,8 C 15,9 C 0,0 UV-I 0,0 C 61 % 91 % 0 % 1011,9 hPa 0,0 l/m 2,0 km/h (1 Bft) 0,00 h 0,00 h 5,1 km/h (1 Bft)
11.07.2012 02:00 22,6 C 15,7 C 0,0 UV-I 0,0 C 60 % 89 % 0 % 1011,6 hPa 0,0 l/m 1,7 km/h (1 Bft) 0,00 h 0,00 h 3,9 km/h (1 Bft)
11.07.2012 03:00 22,4 C 14,8 C 0,0 UV-I 0,0 C 60 % 88 % 0 % 1011,6 hPa 0,0 l/m 0,7 km/h (0 Bft) 0,00 h 0,00 h 2,5 km/h (1 Bft)
11.07.2012 04:00 22,3 C 14,5 C 0,0 UV-I 0,0 C 60 % 89 % 0 % 1010,9 hPa 0,0 l/m 2,2 km/h (1 Bft) 0,00 h 0,00 h 5,7 km/h (1 Bft)
11.07.2012 05:00 22,1 C 14,4 C 0,0 UV-I 0,0 C 59 % 88 % 0 % 1011,2 hPa 0,0 l/m 2,9 km/h (1 Bft) 0,00 h 0,00 h 7,1 km/h (2 Bft)
11.07.2012 06:00 22,1 C 14,6 C 0,0 UV-I 0,0 C 58 % 88 % 1 % 1011,2 hPa 0,0 l/m 4,1 km/h (1 Bft) 0,00 h 0,00 h 10,0 km/h (2 Bft)
11.07.2012 07:00 22,1 C 15,2 C 0,0 UV-I 0,2 C 57 % 85 % 6 % 1011,1 hPa 0,0 l/m 5,7 km/h (1 Bft) 0,00 h 0,00 h 10,6 km/h (2 Bft)
11.07.2012 08:00 22,3 C 15,7 C 0,3 UV-I 0,9 C 57 % 85 % 25 % 1011,1 hPa 0,0 l/m 5,0 km/h (1 Bft) 0,00 h 0,00 h 10,8 km/h (2 Bft)
11.07.2012 09:00 22,4 C 15,9 C 0,1 UV-I 0,4 C 57 % 84 % 10 % 1011,3 hPa 0,4 l/m 3,8 km/h (1 Bft) 0,00 h 0,30 h 7,0 km/h (2 Bft)
11.07.2012 10:00 22,1 C 15,3 C 1,0 UV-I 0,7 C 59 % 89 % 20 % 1011,4 hPa 0,2 l/m 4,4 km/h (1 Bft) 0,00 h 0,23 h 11,4 km/h (2 Bft)
11.07.2012 11:00 21,9 C 14,2 C 0,5 UV-I 0,3 C 59 % 91 % 7 % 1011,5 hPa 2,1 l/m 5,8 km/h (2 Bft) 0,00 h 0,10 h 10,5 km/h (2 Bft)
11.07.2012 12:00 21,6 C 15,9 C 2,4 UV-I 4,6 C 59 % 89 % 97 % 1011,5 hPa 0,0 l/m 8,7 km/h (2 Bft) 0,93 h 0,00 h 14,4 km/h (3 Bft)
11.07.2012 13:00 21,9 C 18,5 C 2,6 UV-I 5,7 C 56 % 73 % 100 % 1011,3 hPa 0,0 l/m 9,1 km/h (2 Bft) 1,00 h 0,00 h 15,6 km/h (3 Bft)
11.07.2012 14:00 23,0 C 20,1 C 2,6 UV-I 5,3 C 52 % 63 % 100 % 1011,1 hPa 0,0 l/m 8,7 km/h (2 Bft) 1,00 h 0,00 h 15,2 km/h (3 Bft)
11.07.2012 15:00 23,6 C 19,4 C 1,7 UV-I 2,9 C 49 % 65 % 82 % 1010,7 hPa 0,0 l/m 7,6 km/h (2 Bft) 0,43 h 0,00 h 13,5 km/h (3 Bft)
11.07.2012 16:00 23,2 C 16,3 C 0,4 UV-I 0,6 C 50 % 76 % 16 % 1011,7 hPa 0,6 l/m 7,5 km/h (2 Bft) 0,00 h 0,37 h 12,8 km/h (3 Bft)
11.07.2012 17:00 22,8 C 14,9 C 0,6 UV-I 0,2 C 55 % 88 % 6 % 1012,2 hPa 0,5 l/m 2,7 km/h (1 Bft) 0,00 h 0,17 h 8,1 km/h (2 Bft)
11.07.2012 18:00 23,1 C 14,9 C 0,2 UV-I 0,7 C 55 % 87 % 19 % 1011,9 hPa 1,1 l/m 2,1 km/h (1 Bft) 0,03 h 0,30 h 5,4 km/h (1 Bft)
11.07.2012 19:00 22,4 C 13,1 C 0,0 UV-I 0,0 C 55 % 89 % 0 % 1012,2 hPa 4,6 l/m 1,1 km/h (0 Bft) 0,00 h 0,10 h 3,1 km/h (1 Bft)
11.07.2012 20:00 21,9 C 12,6 C 0,0 UV-I 0,0 C 58 % 93 % 0 % 1012,4 hPa 2,1 l/m 0,2 km/h (0 Bft) 0,00 h 0,27 h 0,9 km/h (0 Bft)
11.07.2012 21:00 21,5 C 12,4 C 0,0 UV-I 0,0 C 59 % 93 % 0 % 1011,9 hPa 0,1 l/m 0,1 km/h (0 Bft) 0,00 h 0,07 h 0,6 km/h (0 Bft)
11.07.2012 22:00 21,2 C 12,3 C 0,0 UV-I 0,0 C 59 % 94 % 0 % 1011,9 hPa 0,0 l/m 0,7 km/h (0 Bft) 0,00 h 0,00 h 2,0 km/h (1 Bft)
11.07.2012 23:00 21,2 C 12,1 C 0,0 UV-I 0,0 C 59 % 95 % 0 % 1012,4 hPa 0,0 l/m 1,7 km/h (1 Bft) 0,00 h 0,00 h 2,0 km/h (1 Bft)
12.07.2012 00:00 21,0 C 11,9 C 0,0 UV-I 0,0 C 58 % 95 % 0 % 1012,2 hPa 0,0 l/m 0,7 km/h (0 Bft) 0,00 h 0,00 h 3,3 km/h (1 Bft)
12.07.2012 01:00 20,7 C 11,9 C 0,0 UV-I 0,0 C 57 % 95 % 0 % 1011,9 hPa 0,0 l/m 2,1 km/h (1 Bft) 0,00 h 0,00 h 6,6 km/h (2 Bft)
12.07.2012 02:00 20,4 C 12,2 C 0,0 UV-I 0,0 C 58 % 95 % 0 % 1011,9 hPa 0,0 l/m 2,7 km/h (1 Bft) 0,00 h 0,00 h 7,2 km/h (2 Bft)
12.07.2012 03:00 20,1 C 12,4 C 0,0 UV-I 0,0 C 59 % 95 % 0 % 1011,9 hPa 0,0 l/m 3,4 km/h (1 Bft) 0,00 h 0,00 h 8,5 km/h (2 Bft)
12.07.2012 04:00 20,0 C 12,3 C 0,0 UV-I 0,0 C 59 % 95 % 0 % 1011,7 hPa 0,0 l/m 2,7 km/h (1 Bft) 0,00 h 0,00 h 6,9 km/h (2 Bft)
12.07.2012 05:00 19,9 C 12,3 C 0,0 UV-I 0,0 C 59 % 95 % 0 % 1011,6 hPa 0,0 l/m 3,0 km/h (1 Bft) 0,00 h 0,00 h 8,1 km/h (2 Bft)
12.07.2012 06:00 19,8 C 12,9 C 0,0 UV-I 0,0 C 59 % 94 % 1 % 1011,4 hPa 0,0 l/m 4,5 km/h (1 Bft) 0,00 h 0,00 h 10,1 km/h (2 Bft)
12.07.2012 07:00 19,8 C 13,3 C 0,0 UV-I 0,0 C 59 % 92 % 1 % 1011,2 hPa 0,0 l/m 6,2 km/h (2 Bft) 0,00 h 0,17 h 11,5 km/h (2 Bft)
12.07.2012 08:00 19,6 C 13,8 C 0,5 UV-I 1,2 C 59 % 89 % 35 % 1011,1 hPa 0,1 l/m 8,1 km/h (2 Bft) 0,00 h 0,03 h 14,7 km/h (3 Bft)
12.07.2012 09:00 19,7 C 14,4 C 1,1 UV-I 1,9 C 57 % 83 % 52 % 1011,0 hPa 0,0 l/m 10,1 km/h (2 Bft) 0,13 h 0,03 h 20,1 km/h (4 Bft)
12.07.2012 10:00 19,7 C 14,1 C 1,7 UV-I 2,0 C 58 % 86 % 50 % 1011,4 hPa 0,0 l/m 9,4 km/h (2 Bft) 0,40 h 0,12 h 16,9 km/h (3 Bft)
12.07.2012 11:00 19,9 C 14,9 C 2,0 UV-I 3,2 C 58 % 84 % 75 % 1012,2 hPa 0,5 l/m 10,5 km/h (2 Bft) 0,67 h 0,07 h 21,5 km/h (4 Bft)
12.07.2012 12:00 20,3 C 15,9 C 1,9 UV-I 4,0 C 57 % 79 % 90 % 1012,8 hPa 0,0 l/m 8,7 km/h (2 Bft) 0,77 h 0,03 h 15,3 km/h (3 Bft)
12.07.2012 13:00 20,9 C 17,3 C 1,9 UV-I 4,1 C 55 % 69 % 99 % 1013,3 hPa 0,0 l/m 9,7 km/h (2 Bft) 1,00 h 0,00 h 18,2 km/h (3 Bft)
12.07.2012 14:00 21,7 C 18,8 C 2,2 UV-I 4,6 C 51 % 63 % 100 % 1013,6 hPa 0,0 l/m 8,9 km/h (2 Bft) 1,00 h 0,00 h 15,4 km/h (3 Bft)
12.07.2012 15:00 23,4 C 19,7 C 2,4 UV-I 4,9 C 47 % 58 % 100 % 1013,4 hPa 0,0 l/m 8,1 km/h (2 Bft) 1,00 h 0,00 h 14,1 km/h (3 Bft)
12.07.2012 16:00 24,5 C 19,9 C 2,4 UV-I 4,1 C 43 % 56 % 91 % 1013,1 hPa 0,0 l/m 7,3 km/h (2 Bft) 0,77 h 0,00 h 12,9 km/h (3 Bft)
12.07.2012 17:00 24,7 C 19,8 C 2,4 UV-I 3,9 C 42 % 56 % 93 % 1012,7 hPa 0,0 l/m 5,4 km/h (1 Bft) 0,83 h 0,00 h 8,7 km/h (2 Bft)
12.07.2012 18:00 24,3 C 19,3 C 1,2 UV-I 2,1 C 43 % 58 % 61 % 1013,0 hPa 0,0 l/m 4,0 km/h (1 Bft) 0,17 h 0,00 h 9,0 km/h (2 Bft)
12.07.2012 19:00 23,5 C 19,1 C 0,5 UV-I 0,1 C 44 % 58 % 4 % 1013,2 hPa 0,0 l/m 3,0 km/h (1 Bft) 0,00 h 0,00 h 5,7 km/h (1 Bft)
12.07.2012 20:00 23,0 C 18,4 C 0,0 UV-I 0,0 C 45 % 61 % 0 % 1013,4 hPa 0,0 l/m 0,2 km/h (0 Bft) 0,00 h 0,00 h 0,5 km/h (0 Bft)
12.07.2012 21:00 22,5 C 17,2 C 0,0 UV-I 0,0 C 47 % 66 % 0 % 1012,9 hPa 0,0 l/m 0,6 km/h (0 Bft) 0,00 h 0,00 h 1,7 km/h (1 Bft)
12.07.2012 22:00 22,1 C 16,4 C 0,0 UV-I 0,0 C 49 % 71 % 0 % 1012,9 hPa 0,0 l/m 0,2 km/h (0 Bft) 0,00 h 0,00 h 1,6 km/h (1 Bft)
12.07.2012 23:00 22,0 C 16,0 C 0,0 UV-I 0,0 C 50 % 74 % 0 % 1012,6 hPa 0,0 l/m 0,3 km/h (0 Bft) 0,00 h 0,00 h 1,5 km/h (1 Bft)
13.07.2012 00:00 21,8 C 15,6 C 0,0 UV-I 0,0 C 51 % 76 % 0 % 1011,8 hPa 0,0 l/m 1,2 km/h (1 Bft) 0,00 h 0,00 h 2,5 km/h (1 Bft)
13.07.2012 01:00 21,5 C 15,4 C 0,0 UV-I 0,0 C 52 % 77 % 0 % 1010,9 hPa 0,0 l/m 2,0 km/h (1 Bft) 0,00 h 0,10 h 4,6 km/h (1 Bft)
13.07.2012 02:00 21,4 C 14,6 C 0,0 UV-I 0,0 C 54 % 81 % 0 % 1010,1 hPa 0,5 l/m 0,4 km/h (0 Bft) 0,00 h 0,90 h 1,7 km/h (1 Bft)
13.07.2012 03:00 21,3 C 13,7 C 0,0 UV-I 0,0 C 57 % 88 % 0 % 1009,1 hPa 1,5 l/m 1,0 km/h (0 Bft) 0,00 h 0,57 h 3,8 km/h (1 Bft)
13.07.2012 04:00 21,2 C 13,2 C 0,0 UV-I 0,0 C 59 % 91 % 0 % 1007,8 hPa 4,7 l/m 1,7 km/h (1 Bft) 0,00 h 0,00 h 4,6 km/h (1 Bft)
13.07.2012 05:00 21,1 C 13,6 C 0,0 UV-I 0,0 C 60 % 94 % 0 % 1007,0 hPa 0,6 l/m 3,3 km/h (1 Bft) 0,00 h 0,00 h 9,2 km/h (2 Bft)
13.07.2012 06:00 20,6 C 13,6 C 0,0 UV-I 0,0 C 61 % 95 % 0 % 1007,0 hPa 0,2 l/m 3,8 km/h (1 Bft) 0,00 h 0,00 h 8,7 km/h (2 Bft)
13.07.2012 07:00 20,5 C 13,6 C 0,0 UV-I 0,0 C 62 % 95 % 0 % 1007,0 hPa 0,6 l/m 2,9 km/h (1 Bft) 0,00 h 0,00 h 7,4 km/h (2 Bft)
13.07.2012 08:00 20,9 C 13,8 C 0,1 UV-I 0,0 C 61 % 96 % 0 % 1006,7 hPa 0,1 l/m 3,0 km/h (1 Bft) 0,00 h 0,00 h 6,5 km/h (2 Bft)
13.07.2012 09:00 21,2 C 14,3 C 0,4 UV-I 0,3 C 61 % 96 % 8 % 1006,7 hPa 0,0 l/m 3,2 km/h (1 Bft) 0,00 h 0,03 h 7,5 km/h (2 Bft)
13.07.2012 10:00 21,1 C 14,7 C 0,5 UV-I 0,9 C 61 % 95 % 27 % 1006,3 hPa 0,0 l/m 3,3 km/h (1 Bft) 0,00 h 0,00 h 6,5 km/h (2 Bft)
13.07.2012 11:00 21,0 C 15,3 C 0,9 UV-I 1,8 C 61 % 93 % 52 % 1006,0 hPa 0,0 l/m 5,3 km/h (1 Bft) 0,10 h 0,00 h 10,2 km/h (2 Bft)
13.07.2012 12:00 21,1 C 16,0 C 0,8 UV-I 1,7 C 62 % 92 % 49 % 1005,5 hPa 0,1 l/m 4,0 km/h (1 Bft) 0,00 h 0,13 h 8,3 km/h (2 Bft)
13.07.2012 13:00 21,3 C 16,9 C 1,2 UV-I 2,1 C 62 % 90 % 60 % 1004,8 hPa 0,0 l/m 5,4 km/h (1 Bft) 0,20 h 0,00 h 10,4 km/h (2 Bft)
13.07.2012 14:00 21,5 C 17,2 C 1,4 UV-I 1,8 C 63 % 90 % 44 % 1004,4 hPa 0,1 l/m 4,8 km/h (1 Bft) 0,23 h 0,27 h 9,8 km/h (2 Bft)
13.07.2012 15:00 22,5 C 19,1 C 2,0 UV-I 4,0 C 63 % 85 % 89 % 1003,4 hPa 0,1 l/m 6,6 km/h (2 Bft) 0,77 h 0,07 h 13,1 km/h (3 Bft)
13.07.2012 16:00 23,8 C 20,2 C 1,4 UV-I 3,4 C 57 % 76 % 78 % 1003,0 hPa 0,1 l/m 5,3 km/h (1 Bft) 0,60 h 0,07 h 10,2 km/h (2 Bft)
13.07.2012 17:00 23,4 C 19,5 C 1,4 UV-I 1,9 C 58 % 78 % 55 % 1002,2 hPa 0,0 l/m 6,9 km/h (2 Bft) 0,00 h 0,00 h 12,4 km/h (3 Bft)
13.07.2012 18:00 23,0 C 19,7 C 0,5 UV-I 1,4 C 58 % 77 % 41 % 1001,6 hPa 0,0 l/m 3,3 km/h (1 Bft) 0,00 h 0,10 h 7,7 km/h (2 Bft)
13.07.2012 19:00 22,6 C 17,8 C 0,0 UV-I 0,0 C 61 % 85 % 0 % 1001,7 hPa 4,0 l/m 1,4 km/h (1 Bft) 0,00 h 0,30 h 3,3 km/h (1 Bft)
13.07.2012 20:00 22,1 C 16,3 C 0,0 UV-I 0,0 C 64 % 91 % 0 % 1001,6 hPa 1,9 l/m 1,3 km/h (1 Bft) 0,00 h 0,00 h 4,4 km/h (1 Bft)
13.07.2012 21:00 21,6 C 16,0 C 0,0 UV-I 0,0 C 65 % 93 % 0 % 1001,8 hPa 0,1 l/m 1,9 km/h (1 Bft) 0,00 h 0,00 h 4,7 km/h (1 Bft)
13.07.2012 22:00 21,2 C 15,3 C 0,0 UV-I 0,0 C 64 % 93 % 0 % 1001,9 hPa 0,0 l/m 2,0 km/h (1 Bft) 0,00 h 0,00 h 5,4 km/h (1 Bft)
13.07.2012 23:00 21,1 C 14,8 C 0,0 UV-I 0,0 C 63 % 92 % 0 % 1001,8 hPa 0,0 l/m 0,3 km/h (0 Bft) 0,00 h 0,00 h 0,7 km/h (0 Bft)
14.07.2012 00:00 21,0 C 14,5 C 0,0 UV-I 0,0 C 62 % 93 % 0 % 1001,5 hPa 0,0 l/m 0,2 km/h (0 Bft) 0,00 h 0,00 h 1,0 km/h (0 Bft)
14.07.2012 01:00 21,0 C 14,4 C 0,0 UV-I 0,0 C 63 % 93 % 0 % 1001,0 hPa 0,0 l/m 0,5 km/h (0 Bft) 0,00 h 0,00 h 1,3 km/h (1 Bft)
14.07.2012 02:00 21,0 C 14,4 C 0,0 UV-I 0,0 C 63 % 93 % 0 % 1000,5 hPa 0,0 l/m 0,5 km/h (0 Bft) 0,00 h 0,00 h 2,1 km/h (1 Bft)
14.07.2012 03:00 20,8 C 14,1 C 0,0 UV-I 0,0 C 62 % 93 % 0 % 1000,4 hPa 0,0 l/m 0,7 km/h (0 Bft) 0,00 h 0,00 h 2,9 km/h (1 Bft)
14.07.2012 04:00 20,7 C 13,8 C 0,0 UV-I 0,0 C 62 % 93 % 0 % 1000,2 hPa 0,5 l/m 0,3 km/h (0 Bft) 0,00 h 0,73 h 1,2 km/h (1 Bft)
14.07.2012 05:00 20,6 C 13,3 C 0,0 UV-I 0,0 C 62 % 94 % 0 % 1000,2 hPa 0,4 l/m 0,5 km/h (0 Bft) 0,00 h 0,33 h 3,3 km/h (1 Bft)
14.07.2012 06:00 20,4 C 13,4 C 0,0 UV-I 0,0 C 63 % 95 % 0 % 1000,5 hPa 0,4 l/m 2,5 km/h (1 Bft) 0,00 h 0,53 h 6,5 km/h (2 Bft)
14.07.2012 07:00 20,4 C 13,6 C 0,0 UV-I 0,0 C 64 % 95 % 0 % 1001,2 hPa 0,2 l/m 3,2 km/h (1 Bft) 0,00 h 0,17 h 7,2 km/h (2 Bft)
14.07.2012 08:00 20,2 C 13,9 C 0,1 UV-I 0,0 C 64 % 96 % 0 % 1001,6 hPa 0,0 l/m 4,3 km/h (1 Bft) 0,00 h 0,07 h 8,8 km/h (2 Bft)
14.07.2012 09:00 20,1 C 14,4 C 0,4 UV-I 0,4 C 64 % 95 % 11 % 1002,3 hPa 0,0 l/m 5,5 km/h (1 Bft) 0,00 h 0,00 h 10,9 km/h (2 Bft)
14.07.2012 10:00 20,3 C 15,4 C 0,9 UV-I 2,1 C 64 % 93 % 60 % 1002,8 hPa 0,0 l/m 6,8 km/h (2 Bft) 0,00 h 0,10 h 13,4 km/h (3 Bft)
14.07.2012 11:00 20,4 C 15,2 C 0,6 UV-I 0,7 C 64 % 92 % 19 % 1003,4 hPa 1,1 l/m 5,7 km/h (1 Bft) 0,00 h 0,27 h 9,8 km/h (2 Bft)
14.07.2012 12:00 20,5 C 15,6 C 1,6 UV-I 2,2 C 65 % 92 % 61 % 1003,9 hPa 1,2 l/m 6,7 km/h (2 Bft) 0,30 h 0,00 h 11,6 km/h (2 Bft)
14.07.2012 13:00 20,7 C 16,3 C 1,8 UV-I 2,4 C 64 % 89 % 66 % 1004,5 hPa 0,9 l/m 10,3 km/h (2 Bft) 0,43 h 0,07 h 18,5 km/h (3 Bft)
14.07.2012 14:00 20,9 C 16,0 C 0,8 UV-I 0,4 C 63 % 89 % 12 % 1005,2 hPa 0,5 l/m 8,3 km/h (2 Bft) 0,00 h 0,17 h 14,2 km/h (3 Bft)
14.07.2012 15:00 21,4 C 16,3 C 1,7 UV-I 1,8 C 63 % 91 % 50 % 1005,4 hPa 0,4 l/m 7,3 km/h (2 Bft) 0,20 h 0,00 h 13,6 km/h (3 Bft)
14.07.2012 16:00 22,3 C 17,6 C 1,5 UV-I 2,7 C 61 % 85 % 77 % 1005,3 hPa 0,0 l/m 9,1 km/h (2 Bft) 0,33 h 0,00 h 13,5 km/h (3 Bft)
14.07.2012 17:00 22,3 C 17,1 C 0,8 UV-I 0,9 C 60 % 84 % 25 % 1005,7 hPa 0,4 l/m 5,5 km/h (1 Bft) 0,00 h 0,07 h 11,9 km/h (2 Bft)
14.07.2012 18:00 22,5 C 16,0 C 0,6 UV-I 0,7 C 60 % 90 % 21 % 1006,0 hPa 0,6 l/m 3,7 km/h (1 Bft) 0,07 h 0,13 h 9,0 km/h (2 Bft)
14.07.2012 19:00 22,2 C 15,9 C 0,3 UV-I 0,1 C 61 % 92 % 3 % 1006,5 hPa 0,6 l/m 1,2 km/h (1 Bft) 0,00 h 0,07 h 4,8 km/h (1 Bft)
14.07.2012 20:00 21,7 C 14,4 C 0,0 UV-I 0,0 C 62 % 92 % 0 % 1007,0 hPa 0,7 l/m 2,0 km/h (1 Bft) 0,00 h 0,00 h 3,9 km/h (1 Bft)
14.07.2012 21:00 21,3 C 14,2 C 0,0 UV-I 0,0 C 63 % 94 % 0 % 1007,1 hPa 0,6 l/m 2,2 km/h (1 Bft) 0,00 h 0,00 h 5,1 km/h (1 Bft)
14.07.2012 22:00 21,0 C 14,0 C 0,0 UV-I 0,0 C 64 % 95 % 0 % 1007,4 hPa 0,6 l/m 2,7 km/h (1 Bft) 0,00 h 0,00 h 7,3 km/h (2 Bft)
14.07.2012 23:00 20,8 C 14,2 C 0,0 UV-I 0,0 C 65 % 95 % 0 % 1007,9 hPa 0,4 l/m 3,2 km/h (1 Bft) 0,00 h 0,00 h 6,9 km/h (2 Bft)
15.07.2012 00:00 20,7 C 14,1 C 0,0 UV-I 0,0 C 65 % 96 % 0 % 1008,5 hPa 0,4 l/m 1,3 km/h (1 Bft) 0,00 h 0,00 h 4,0 km/h (1 Bft)
15.07.2012 01:00 20,7 C 14,2 C 0,0 UV-I 0,0 C 65 % 96 % 0 % 1008,8 hPa 0,2 l/m 0,4 km/h (0 Bft) 0,00 h 0,20 h 1,0 km/h (0 Bft)
15.07.2012 02:00 20,7 C 14,1 C 0,0 UV-I 0,0 C 66 % 96 % 0 % 1008,9 hPa 0,4 l/m 0,0 km/h (0 Bft) 0,00 h 0,27 h 0,0 km/h (0 Bft)
15.07.2012 03:00 20,7 C 14,1 C 0,0 UV-I 0,0 C 66 % 96 % 0 % 1008,8 hPa 0,6 l/m 0,0 km/h (0 Bft) 0,00 h 0,40 h 0,3 km/h (0 Bft)
15.07.2012 04:00 20,7 C 13,9 C 0,0 UV-I 0,0 C 66 % 96 % 0 % 1008,7 hPa 0,6 l/m 0,1 km/h (0 Bft) 0,00 h 0,13 h 0,5 km/h (0 Bft)
15.07.2012 05:00 20,7 C 13,7 C 0,0 UV-I 0,0 C 66 % 97 % 0 % 1009,1 hPa 0,7 l/m 0,3 km/h (0 Bft) 0,00 h 0,00 h 0,7 km/h (0 Bft)
15.07.2012 06:00 20,6 C 13,5 C 0,0 UV-I 0,0 C 66 % 97 % 0 % 1009,7 hPa 0,6 l/m 0,1 km/h (0 Bft) 0,00 h 0,00 h 0,7 km/h (0 Bft)
15.07.2012 07:00 20,7 C 13,7 C 0,0 UV-I 0,1 C 66 % 97 % 2 % 1010,0 hPa 0,6 l/m 0,7 km/h (0 Bft) 0,00 h 0,00 h 1,8 km/h (1 Bft)
15.07.2012 08:00 20,8 C 14,0 C 0,1 UV-I 0,4 C 66 % 97 % 11 % 1010,3 hPa 0,5 l/m 1,5 km/h (1 Bft) 0,00 h 0,00 h 3,4 km/h (1 Bft)
15.07.2012 09:00 21,0 C 14,3 C 0,2 UV-I 0,5 C 66 % 97 % 14 % 1011,0 hPa 0,5 l/m 1,4 km/h (1 Bft) 0,00 h 0,00 h 4,1 km/h (1 Bft)
15.07.2012 10:00 21,2 C 15,1 C 0,8 UV-I 2,4 C 66 % 97 % 68 % 1011,5 hPa 0,5 l/m 2,6 km/h (1 Bft) 0,27 h 0,03 h 5,8 km/h (2 Bft)
15.07.2012 11:00 21,7 C 15,8 C 1,2 UV-I 3,5 C 64 % 94 % 98 % 1012,0 hPa 0,4 l/m 3,4 km/h (1 Bft) 1,00 h 0,00 h 8,4 km/h (2 Bft)
15.07.2012 12:00 22,2 C 17,1 C 2,1 UV-I 5,4 C 63 % 87 % 100 % 1012,5 hPa 0,4 l/m 3,2 km/h (1 Bft) 1,00 h 0,00 h 7,7 km/h (2 Bft)
15.07.2012 13:00 22,5 C 17,7 C 1,1 UV-I 3,3 C 61 % 78 % 80 % 1012,9 hPa 0,4 l/m 1,6 km/h (1 Bft) 0,63 h 0,00 h 4,3 km/h (1 Bft)
15.07.2012 14:00 22,4 C 17,5 C 1,1 UV-I 2,4 C 60 % 77 % 66 % 1013,3 hPa 0,4 l/m 1,3 km/h (1 Bft) 0,27 h 0,00 h 4,3 km/h (1 Bft)
15.07.2012 15:00 23,1 C 19,2 C 2,1 UV-I 5,4 C 58 % 71 % 98 % 1013,6 hPa 0,4 l/m 2,1 km/h (1 Bft) 0,97 h 0,00 h 6,1 km/h (2 Bft)
15.07.2012 16:00 23,1 C 16,1 C 0,1 UV-I 0,2 C 57 % 83 % 5 % 1014,4 hPa 0,4 l/m 4,9 km/h (1 Bft) 0,00 h 0,63 h 11,2 km/h (2 Bft)
15.07.2012 17:00 22,5 C 15,4 C 0,5 UV-I 0,1 C 59 % 91 % 4 % 1015,0 hPa 0,2 l/m 3,1 km/h (1 Bft) 0,00 h 0,27 h 7,7 km/h (2 Bft)
15.07.2012 18:00 22,7 C 16,4 C 1,0 UV-I 1,3 C 59 % 87 % 36 % 1015,3 hPa 0,0 l/m 3,5 km/h (1 Bft) 0,00 h 0,00 h 9,3 km/h (2 Bft)
15.07.2012 19:00 22,6 C 16,1 C 0,1 UV-I 0,3 C 58 % 86 % 9 % 1016,2 hPa 0,5 l/m 4,1 km/h (1 Bft) 0,00 h 0,23 h 9,0 km/h (2 Bft)
15.07.2012 20:00 22,1 C 14,7 C 0,0 UV-I 0,0 C 60 % 89 % 0 % 1016,9 hPa 0,0 l/m 3,2 km/h (1 Bft) 0,00 h 0,30 h 6,4 km/h (2 Bft)
15.07.2012 21:00 21,6 C 14,1 C 0,0 UV-I 0,0 C 61 % 92 % 0 % 1017,6 hPa 0,0 l/m 1,5 km/h (1 Bft) 0,00 h 0,00 h 4,0 km/h (1 Bft)
15.07.2012 22:00 21,3 C 14,0 C 0,0 UV-I 0,0 C 62 % 93 % 0 % 1018,5 hPa 0,0 l/m 3,0 km/h (1 Bft) 0,00 h 0,00 h 7,2 km/h (2 Bft)
15.07.2012 23:00 21,1 C 13,5 C 0,0 UV-I 0,0 C 62 % 94 % 0 % 1019,1 hPa 0,0 l/m 1,0 km/h (0 Bft) 0,00 h 0,00 h 1,6 km/h (1 Bft)
Min-Datum _ 12.07.12 12.07.12 09.07.12 09.07.12 12.07.12 12.07.12 09.07.12 14.07.12 - 09.07.12 - - 09.07.12
_ Min-Zeit 08:16 00:18 00:00 00:00 16:40 16:34 00:00 04:14 - 20:48 - - 00:04
Minimum _ 19,6 C 11,8 C 0,0 UV-I 0,0 C 42 % 53 % 0 % 1000,1 hPa - 0,0 km/h (0 Bft) - - 0,0 km/h (0 Bft)
Max-Datum _ 09.07.12 09.07.12 09.07.12 15.07.12 15.07.12 15.07.12 09.07.12 15.07.12 13.07.12 12.07.12 09.07.12 09.07.12 12.07.12
_ Max-Zeit 16:36 15:48 10:40 15:12 01:54 08:02 08:20 23:54 04:40 13:54 08:20 18:32 11:32
Maximum _ 25,9 C 22,7 C 5,1 UV-I 8,1 C 66 % 98 % 100 % 1019,6 hPa 4,7 l/m 13,3 km/h
SW (3 Bft)
0,03 h 0,03 h 52,2 km/h
W (7 Bft)
Durchschnitt _ 22,0 C 16,1 C 0,6 UV-I 1,2 C 59 % 86 % 27 % 1009,8 hPa #52,0 l/m 3,4 km/h (1 Bft) #30:52 h #11:21 h 7,2 km/h (2 Bft)
© 2012 W. Hausmann